map of VRA home
VRA - Airport
Location
City:  Varadero, Matanzas, Cuba
Name:Juan Gualberto Gómez International Airport
ICAO:MUVR
IATA:VRA

Details
Type:Airport (Aerodrome, Airfield)
Use:Public/Civil, International (customs port of entry)
Latitude:23°02'04"N (23.034444)
Longitude:81°26'07"W (-81.435277)
Elevation:210 ft (64 m)
Variation:5.52°W (WMM2015 magnetic declination)
-0.11° annual change
Runways:1
Longest:11490 × 148 ft (3502 × 45 m), paved

Time
Time Zone:UTC-5 (DST-4)
Local Time:

Weather
METAR:MUVR 152051Z 02009KT 9000 SCT025 26/19 Q1017

Related Locations
Nearby:
Farthest:CCK: 11676 mi / 18790 km
West Island (Pulau Panjang) [Cocos (Keeling) Islands], CC

Find:

   beyond  
but within

Other Information
Maps:
NOTAMs:
Links:
Sources:

  
flag of Cuba   

Airport Diagram

Airport diagram for VRA

Airport diagram PDF

Sectional Chart

Flight Planning
at skyvector.com

Satellite Image

Google Maps Satellite view

 

Copyright © 2004-2017 Karl L. Swartz. All rights reserved.
The Great Circle Mapper name and logo are trademarks of the Great Circle Mapper.
All other trademarks mentioned herein belong to their respective owners.
Please see credits for attibutions and further copyright information.

  Follow gcmap on Facebook Follow gcmap on Twitter Follow gcmap on Google+ GCmap on LinkedIn

hCard Microformat

Geo Microformat